Hlavní strana
METAR-TAF:

METAR-TAF

Letiště :

Gatlinburg, Tennessee, Spojené státy americké

zeměpisná šířka: 35-51-28N, zeměpisná délka: 083-31-43W, výška: 309 m

Aktuální stav počasí

Zpráva byla vytvořena před 6 minutami, v 10:15 UTC
Bezvětří
Teplota 14°C
Vlhkost vzduchu 94%
Tlak 1013 hPa
Viditelnost: 4.8 km
Skoro jasno ve výšce 900 ft
Polojasno ve výšce 1500 ft
Oblačno až skoro zataženo ve výšce 3000 ft
kouřmo

METAR: KGKT 101015Z AUTO 00000KT 3SM BR FEW009 SCT015 BKN030 14/13 A2990 RMK A01

Čas: 04:21 (10:21 UTC)


TAF: chybějící

Stav a předpovědi počasí z více než 4 000 letišť (zprávy METAR a TAF).

Červené a žluté tečky na mapě představují dostupné meteorologické stanice.

Když kurzor umístíte na tečku, zobrazí se název stanice.

Pak kliknutím zobrazíte stav a předpověď počasí.

Chcete-li změnit mapu, kliknutím na zelené tlačítko se znaménkem +mapu přiblížíte, kliknutím na zelené tlačítko se znaménkem – mapu oddálíte a kliknutím na zelené šipky přejdete na sousední mapy.


METAR-TAF: